Time;durP1;ratioP1;P1;durP2;ratioP2;P2;SDS_P1;SDS_P2;PMS_P1;PMS_P2;Temp;Humidity;BMP_temperature;BMP_pressure;BME280_temperature;BME280_humidity;BME280_pressure;Samples;Min_cycle;Max_cycle;Signal;HPM_P1;HPM_P2
2022/06/20 00:03:31;;;;;;;5.80;2.22;;;14.30;99.90;;;;;;12363844;28;20042;-80
2022/06/20 00:09:33;;;;;;;6.82;2.55;;;14.30;99.90;;;;;;12362150;28;20406;-80
2022/06/20 00:15:35;;;;;;;5.78;2.60;;;14.10;99.90;;;;;;12363437;28;20568;-79
2022/06/20 00:21:39;;;;;;;7.85;2.88;;;14.40;99.90;;;;;;12371332;28;20188;-79
2022/06/20 00:27:41;;;;;;;5.57;2.47;;;14.30;99.90;;;;;;12368923;28;21121;-79
2022/06/20 00:33:43;;;;;;;6.43;2.92;;;14.20;99.90;;;;;;12376546;28;20077;-80
2022/06/20 00:39:46;;;;;;;6.22;2.55;;;14.10;99.90;;;;;;12369475;28;20453;-79
2022/06/20 00:45:51;;;;;;;5.88;2.70;;;14.10;99.90;;;;;;12374500;28;20119;-80
2022/06/20 00:52:06;;;;;;;6.47;2.85;;;14.00;99.90;;;;;;12357001;28;20512;-80
2022/06/20 00:58:28;;;;;;;8.73;2.60;;;14.10;99.90;;;;;;12369162;28;20120;-79
2022/06/20 01:04:39;;;;;;;7.50;2.90;;;14.20;99.90;;;;;;12357332;28;20042;-79
2022/06/20 01:11:13;;;;;;;6.35;3.13;;;14.40;99.90;;;;;;12361772;28;20042;-79
2022/06/20 01:17:23;;;;;;;6.53;2.60;;;14.30;99.90;;;;;;12359667;28;20161;-79
2022/06/20 01:23:43;;;;;;;4.70;2.53;;;14.20;99.90;;;;;;12365206;28;20086;-79
2022/06/20 01:29:46;;;;;;;9.45;2.70;;;14.20;99.90;;;;;;12369083;28;20147;-79
2022/06/20 01:42:18;;;;;;;5.85;2.50;;;14.00;99.90;;;;;;12414091;28;20061;-79
2022/06/20 01:48:22;;;;;;;7.65;2.50;;;13.80;99.90;;;;;;12391515;28;20543;-80
2022/06/20 01:54:30;;;;;;;9.57;3.38;;;13.70;99.90;;;;;;12372518;28;20066;-79
2022/06/20 02:00:32;;;;;;;9.50;3.88;;;13.80;99.90;;;;;;12370804;28;20073;-79
2022/06/20 02:06:34;;;;;;;6.25;2.78;;;13.80;99.90;;;;;;12366645;28;20079;-78
2022/06/20 02:12:40;;;;;;;8.60;3.45;;;13.90;99.90;;;;;;12375496;28;20094;-79
2022/06/20 02:18:47;;;;;;;5.68;3.15;;;13.80;99.90;;;;;;12376655;28;20054;-79
2022/06/20 02:24:54;;;;;;;10.00;3.15;;;13.70;99.90;;;;;;12378486;28;20065;-80
2022/06/20 02:30:56;;;;;;;6.10;3.05;;;13.80;99.90;;;;;;12349139;28;20193;-80
2022/06/20 02:37:03;;;;;;;8.52;2.83;;;13.80;99.90;;;;;;12368766;28;20050;-79
2022/06/20 02:43:11;;;;;;;12.73;2.88;;;13.60;99.90;;;;;;12383035;28;20042;-78
2022/06/20 02:49:17;;;;;;;8.27;2.53;;;13.60;99.90;;;;;;12377086;28;20457;-80
2022/06/20 02:55:19;;;;;;;7.53;2.33;;;13.70;99.90;;;;;;12369046;28;20041;-79
2022/06/20 03:01:44;;;;;;;11.13;2.75;;;13.70;99.90;;;;;;12368265;28;20046;-80
2022/06/20 03:07:49;;;;;;;14.85;2.83;;;13.80;99.90;;;;;;12370036;28;20050;-80
2022/06/20 03:13:52;;;;;;;9.95;2.50;;;14.00;99.90;;;;;;12367055;28;20086;-80
2022/06/20 03:19:59;;;;;;;7.72;3.33;;;14.00;99.90;;;;;;12377485;28;20054;-79
2022/06/20 03:26:04;;;;;;;8.57;2.50;;;13.80;99.90;;;;;;12355097;28;20046;-79
2022/06/20 03:32:06;;;;;;;12.05;2.83;;;13.70;99.90;;;;;;12367074;28;20042;-79
2022/06/20 03:38:10;;;;;;;9.63;2.50;;;13.70;99.90;;;;;;12375638;28;20141;-79
2022/06/20 03:44:23;;;;;;;7.13;2.42;;;13.80;99.90;;;;;;12365911;28;20046;-79
2022/06/20 03:50:35;;;;;;;7.03;2.50;;;13.80;99.90;;;;;;12362353;28;20133;-78
2022/06/20 03:56:40;;;;;;;9.80;2.85;;;13.80;99.90;;;;;;12375982;28;20137;-79
2022/06/20 04:02:54;;;;;;;5.80;2.60;;;13.90;99.90;;;;;;12353309;28;20046;-78
2022/06/20 04:15:48;;;;;;;11.63;2.90;;;13.70;99.90;;;;;;12366703;28;20051;-79
2022/06/20 04:21:59;;;;;;;12.98;2.58;;;13.70;99.90;;;;;;12370283;28;20491;-81
2022/06/20 04:28:14;;;;;;;9.57;1.92;;;13.60;99.90;;;;;;12370880;28;20502;-81
2022/06/20 04:34:18;;;;;;;;;;;13.60;99.90;;;;;;12338479;28;20539;-81
2022/06/20 04:40:46;;;;;;;6.20;1.48;;;13.50;99.90;;;;;;12368232;28;19973;-82
2022/06/20 04:47:14;;;;;;;9.48;1.77;;;13.50;99.90;;;;;;12361839;28;20073;-80
2022/06/20 04:53:21;;;;;;;9.45;1.90;;;13.50;99.90;;;;;;12372765;28;20100;-80
2022/06/20 04:59:27;;;;;;;9.95;1.70;;;13.50;99.90;;;;;;12354630;28;20550;-80
2022/06/20 05:05:35;;;;;;;8.20;1.92;;;13.20;99.90;;;;;;12368919;28;20776;-80
2022/06/20 05:11:44;;;;;;;8.68;1.70;;;13.20;99.90;;;;;;12359576;28;20054;-80
2022/06/20 05:17:47;;;;;;;12.50;1.83;;;13.00;99.90;;;;;;12357344;28;20077;-80
2022/06/20 05:24:04;;;;;;;9.25;2.10;;;13.20;99.90;;;;;;12375130;28;20097;-79
2022/06/20 05:30:07;;;;;;;11.60;2.28;;;13.20;99.90;;;;;;12366552;28;20051;-79
2022/06/20 05:36:26;;;;;;;8.18;2.33;;;13.30;99.90;;;;;;12360730;28;20084;-80
2022/06/20 05:42:28;;;;;;;10.20;2.03;;;13.40;99.90;;;;;;12371562;28;20134;-80
2022/06/20 05:48:40;;;;;;;11.65;2.42;;;13.50;99.90;;;;;;12367514;28;20047;-80
2022/06/20 05:54:51;;;;;;;19.45;2.10;;;13.70;99.90;;;;;;12390971;28;20160;-79
2022/06/20 06:00:55;;;;;;;8.98;1.90;;;13.80;99.90;;;;;;12374126;28;20137;-80
2022/06/20 06:07:01;;;;;;;13.30;2.03;;;13.80;99.90;;;;;;12376103;28;20078;-80
2022/06/20 06:13:47;;;;;;;10.93;2.35;;;13.90;99.90;;;;;;12365708;28;20502;-80
2022/06/20 06:19:55;;;;;;;11.83;2.10;;;14.10;99.90;;;;;;12378699;28;20469;-81
2022/06/20 06:25:56;;;;;;;15.48;2.28;;;14.10;99.90;;;;;;12378786;28;20092;-81
2022/06/20 06:32:04;;;;;;;12.77;2.22;;;14.20;99.90;;;;;;12361118;28;20051;-81
2022/06/20 06:38:24;;;;;;;10.82;2.05;;;14.10;99.90;;;;;;12364718;28;20092;-81
2022/06/20 06:44:54;;;;;;;9.10;2.30;;;14.10;99.90;;;;;;12375094;28;20046;-81
2022/06/20 06:51:11;;;;;;;9.68;2.13;;;14.10;99.90;;;;;;12363795;28;20046;-81
2022/06/20 06:57:16;;;;;;;14.18;2.70;;;14.20;99.90;;;;;;12375991;28;20564;-81
2022/06/20 07:03:29;;;;;;;11.30;2.28;;;14.10;99.90;;;;;;12367653;28;20047;-81
2022/06/20 07:09:36;;;;;;;10.90;2.10;;;14.10;99.90;;;;;;12364066;28;20066;-80
2022/06/20 07:15:38;;;;;;;9.30;2.28;;;14.10;99.90;;;;;;12363221;28;20058;-80
2022/06/20 07:21:43;;;;;;;10.90;1.92;;;14.00;99.90;;;;;;12378572;28;20513;-81
2022/06/20 07:27:54;;;;;;;7.53;2.10;;;14.00;99.90;;;;;;12371944;28;20050;-80
2022/06/20 07:34:02;;;;;;;15.93;2.60;;;14.10;99.90;;;;;;12367983;28;20174;-80
2022/06/20 07:40:23;;;;;;;8.68;1.90;;;14.40;99.90;;;;;;12335317;28;20214;-81
2022/06/20 07:46:48;;;;;;;8.32;2.03;;;14.60;99.90;;;;;;12370652;28;20054;-80
2022/06/20 07:53:04;;;;;;;6.25;1.90;;;14.30;99.90;;;;;;12359045;28;20550;-79
2022/06/20 07:59:37;;;;;;;7.25;1.95;;;14.60;99.90;;;;;;12353641;28;20077;-80
2022/06/20 08:05:44;;;;;;;10.75;2.72;;;14.40;99.90;;;;;;12348405;28;20460;-80
2022/06/20 08:12:15;;;;;;;8.73;2.28;;;14.80;99.90;;;;;;12348517;28;20386;-80
2022/06/20 08:18:17;;;;;;;7.75;2.00;;;14.90;99.90;;;;;;12359635;28;20055;-81
2022/06/20 08:24:35;;;;;;;7.22;1.40;;;15.00;99.90;;;;;;12377221;28;20387;-80
2022/06/20 08:30:52;;;;;;;12.57;1.92;;;14.80;99.90;;;;;;12361889;28;20046;-81
2022/06/20 08:37:23;;;;;;;6.85;1.65;;;15.30;99.90;;;;;;12342042;28;20054;-80
2022/06/20 08:43:56;;;;;;;6.15;1.70;;;15.10;99.90;;;;;;12381544;28;20045;-80
2022/06/20 08:50:19;;;;;;;8.60;1.77;;;14.80;99.90;;;;;;12375058;28;20038;-80
2022/06/20 08:57:12;;;;;;;4.78;1.48;;;15.00;99.90;;;;;;12379657;28;20050;-80
2022/06/20 09:03:32;;;;;;;6.57;1.77;;;15.00;99.90;;;;;;12377556;28;20096;-80
2022/06/20 09:09:53;;;;;;;7.78;1.80;;;14.90;99.90;;;;;;12389464;28;20058;-81
2022/06/20 09:16:09;;;;;;;4.70;1.60;;;14.90;99.90;;;;;;12365933;28;20552;-80
2022/06/20 09:22:43;;;;;;;7.28;1.60;;;15.20;99.90;;;;;;12373283;28;20053;-82
2022/06/20 09:28:57;;;;;;;8.07;1.73;;;15.40;99.90;;;;;;12350432;28;20050;-81
2022/06/20 09:35:23;;;;;;;4.83;1.20;;;15.80;99.90;;;;;;12379056;28;20340;-81
2022/06/20 09:41:36;;;;;;;5.72;1.13;;;16.30;99.90;;;;;;12378727;28;20046;-81
2022/06/20 09:48:19;;;;;;;6.00;1.02;;;16.30;99.90;;;;;;12379997;28;20042;-79
2022/06/20 09:54:51;;;;;;;5.13;1.63;;;16.00;99.90;;;;;;12321302;28;20042;-79
2022/06/20 10:01:10;;;;;;;3.58;1.10;;;16.20;99.90;;;;;;12375997;28;20054;-80
2022/06/20 10:07:35;;;;;;;4.15;1.05;;;16.60;99.90;;;;;;12400994;28;20057;-81
2022/06/20 10:14:01;;;;;;;4.40;1.00;;;16.50;99.90;;;;;;12370449;28;20038;-80
2022/06/20 10:20:21;;;;;;;3.15;0.93;;;16.30;99.90;;;;;;12375276;28;20059;-81
2022/06/20 10:26:49;;;;;;;3.90;1.48;;;16.30;99.90;;;;;;12358761;28;20137;-80
2022/06/20 10:33:09;;;;;;;4.00;1.27;;;16.40;99.90;;;;;;12379690;28;20046;-80
2022/06/20 10:39:37;;;;;;;5.82;1.23;;;16.70;99.90;;;;;;12365296;28;20046;-80
2022/06/20 10:45:55;;;;;;;3.05;1.17;;;17.20;99.90;;;;;;12361843;28;20519;-80
2022/06/20 10:52:18;;;;;;;6.32;1.40;;;17.40;99.90;;;;;;12353796;28;20042;-80
2022/06/20 10:58:28;;;;;;;3.53;1.02;;;17.60;99.90;;;;;;12367930;28;20507;-80
2022/06/20 11:04:49;;;;;;;5.60;1.25;;;17.50;99.90;;;;;;12363027;28;20129;-81
2022/06/20 11:11:11;;;;;;;5.80;1.50;;;17.80;99.90;;;;;;12379063;28;20071;-80
2022/06/20 11:17:25;;;;;;;5.30;1.40;;;17.30;99.90;;;;;;12364499;28;20511;-81
2022/06/20 11:23:55;;;;;;;5.95;1.55;;;17.50;99.90;;;;;;12371767;28;20043;-81
2022/06/20 11:30:04;;;;;;;4.82;1.50;;;18.00;99.90;;;;;;12356610;28;20046;-80
2022/06/20 11:36:10;;;;;;;6.68;1.45;;;18.50;99.90;;;;;;12363224;28;20542;-81
2022/06/20 11:42:45;;;;;;;3.33;1.30;;;18.90;99.90;;;;;;12349303;28;20054;-80
2022/06/20 11:49:29;;;;;;;5.47;1.27;;;18.40;99.90;;;;;;12361277;28;20043;-80
2022/06/20 11:55:58;;;;;;;6.30;1.50;;;18.10;99.90;;;;;;12316410;28;20038;-79
2022/06/20 12:02:41;;;;;;;5.72;1.30;;;17.80;99.90;;;;;;12365931;28;20490;-82
2022/06/20 12:08:47;;;;;;;4.47;1.35;;;17.80;99.90;;;;;;12360925;28;20042;-81
2022/06/20 12:15:05;;;;;;;4.18;1.40;;;18.60;99.90;;;;;;12364309;28;20466;-80
2022/06/20 12:27:36;;;;;;;3.75;1.35;;;19.30;99.90;;;;;;12360233;28;20049;-78
2022/06/20 12:33:43;;;;;;;5.53;1.40;;;18.80;99.90;;;;;;12368107;28;20560;-79
2022/06/20 12:40:00;;;;;;;4.80;1.48;;;18.60;99.90;;;;;;12380056;28;20129;-82
2022/06/20 12:46:22;;;;;;;7.93;1.38;;;18.60;99.90;;;;;;12381119;28;20584;-81
2022/06/20 12:52:42;;;;;;;7.00;1.73;;;18.40;99.90;;;;;;12359917;28;20494;-82
2022/06/20 12:59:17;;;;;;;6.40;1.50;;;18.80;99.90;;;;;;12347911;28;20055;-81
2022/06/20 13:05:54;;;;;;;4.03;1.60;;;19.10;99.90;;;;;;12372777;28;20434;-82
2022/06/20 13:11:59;;;;;;;4.57;1.50;;;18.60;99.90;;;;;;12362036;28;20042;-81
2022/06/20 13:18:29;;;;;;;5.60;1.70;;;18.20;99.90;;;;;;12375378;28;20139;-81
2022/06/20 13:24:43;;;;;;;7.82;2.05;;;18.20;99.90;;;;;;12393645;28;20112;-80
2022/06/20 13:30:55;;;;;;;5.22;1.55;;;18.00;99.90;;;;;;12367724;28;20051;-81
2022/06/20 13:37:37;;;;;;;5.50;1.60;;;18.10;99.90;;;;;;12364909;28;20092;-80
2022/06/20 13:43:39;;;;;;;7.70;1.80;;;18.00;99.90;;;;;;12366052;28;20042;-80
2022/06/20 13:50:12;;;;;;;5.22;1.73;;;17.90;99.90;;;;;;12372404;28;20125;-82
2022/06/20 13:56:30;;;;;;;7.10;1.60;;;17.90;99.90;;;;;;12379379;28;20141;-82
2022/06/20 14:02:46;;;;;;;4.57;1.45;;;18.00;99.90;;;;;;12345908;28;20100;-81
2022/06/20 14:08:53;;;;;;;4.68;1.40;;;18.70;99.90;;;;;;12372367;28;20858;-81
2022/06/20 14:15:02;;;;;;;2.50;1.15;;;19.10;99.90;;;;;;12372854;28;20058;-80
2022/06/20 14:21:07;;;;;;;5.82;1.48;;;18.80;99.90;;;;;;12357241;28;20468;-82
2022/06/20 14:27:25;;;;;;;8.27;1.30;;;18.60;99.90;;;;;;12352522;28;20129;-82
2022/06/20 14:33:42;;;;;;;5.28;1.38;;;18.50;99.90;;;;;;12396914;28;20038;-81
2022/06/20 14:39:52;;;;;;;4.68;1.15;;;18.60;99.90;;;;;;12361943;28;20501;-80
2022/06/20 14:46:06;;;;;;;4.93;1.10;;;18.40;99.90;;;;;;12346665;28;20089;-81
2022/06/20 14:52:17;;;;;;;;;;;18.30;99.90;;;;;;12361498;28;20047;-82
2022/06/20 14:58:33;;;;;;;2.78;1.05;;;18.10;99.90;;;;;;12359859;28;19991;-81
2022/06/20 15:04:56;;;;;;;5.20;1.00;;;18.00;99.90;;;;;;12361749;28;20089;-81
2022/06/20 15:11:12;;;;;;;4.72;1.02;;;18.10;99.90;;;;;;12367228;28;20133;-81
2022/06/20 15:17:41;;;;;;;2.83;1.00;;;18.10;99.90;;;;;;12346824;28;20066;-81
2022/06/20 15:23:57;;;;;;;4.15;1.20;;;18.00;99.90;;;;;;12359583;28;20042;-81
2022/06/20 15:30:19;;;;;;;5.57;1.10;;;18.10;99.90;;;;;;12380281;28;20177;-81
2022/06/20 15:36:34;;;;;;;4.22;1.17;;;18.00;99.90;;;;;;12364466;28;20046;-81
2022/06/20 15:43:01;;;;;;;4.60;0.93;;;17.90;99.90;;;;;;12366717;28;20181;-81
2022/06/20 15:49:18;;;;;;;3.90;1.20;;;17.80;99.90;;;;;;12353320;28;20046;-82
2022/06/20 15:55:32;;;;;;;6.03;1.20;;;17.90;99.90;;;;;;12362497;28;20180;-80
2022/06/20 16:01:49;;;;;;;4.82;0.90;;;17.90;99.90;;;;;;12350365;28;20081;-80
2022/06/20 16:08:07;;;;;;;4.40;1.27;;;17.90;99.90;;;;;;12359750;28;20051;-80
2022/06/20 16:14:20;;;;;;;6.30;1.13;;;17.70;99.90;;;;;;12357415;28;20050;-82
2022/06/20 16:20:31;;;;;;;4.77;0.97;;;17.70;99.90;;;;;;12362827;28;20054;-80
2022/06/20 16:26:42;;;;;;;6.47;1.27;;;17.90;99.90;;;;;;12356527;28;20201;-81
2022/06/20 16:33:15;;;;;;;4.63;1.15;;;17.80;99.90;;;;;;12358265;28;20051;-81
2022/06/20 16:39:19;;;;;;;2.73;1.10;;;17.90;99.90;;;;;;12340217;28;20050;-80
2022/06/20 16:45:50;;;;;;;3.20;0.82;;;18.30;99.90;;;;;;12356699;28;20034;-82
2022/06/20 16:52:00;;;;;;;2.17;0.90;;;18.20;99.90;;;;;;12369573;28;20069;-82
2022/06/20 16:58:09;;;;;;;5.07;1.20;;;18.30;99.90;;;;;;12357814;28;20074;-80
2022/06/20 17:04:57;;;;;;;2.83;1.20;;;18.60;99.90;;;;;;12352668;28;20092;-80
2022/06/20 17:11:16;;;;;;;4.82;1.00;;;18.80;99.90;;;;;;12368271;28;20173;-81
2022/06/20 17:17:26;;;;;;;3.55;1.30;;;18.90;99.90;;;;;;12356847;28;20089;-81
2022/06/20 17:23:34;;;;;;;2.90;1.17;;;18.90;99.90;;;;;;12362754;28;20046;-81
2022/06/20 17:29:55;;;;;;;9.02;1.27;;;19.00;99.90;;;;;;12384273;28;20059;-81
2022/06/20 17:36:21;;;;;;;5.82;1.20;;;18.80;99.90;;;;;;12359779;28;20047;-81
2022/06/20 17:42:44;;;;;;;3.15;1.00;;;19.10;99.90;;;;;;12361434;28;20559;-81
2022/06/20 17:49:04;;;;;;;4.00;1.20;;;18.80;99.90;;;;;;12375139;28;20047;-81
2022/06/20 17:55:21;;;;;;;3.13;0.90;;;18.80;99.90;;;;;;12356858;28;20718;-81
2022/06/20 18:01:45;;;;;;;3.53;1.13;;;18.70;99.90;;;;;;12362007;28;20105;-80
2022/06/20 18:07:57;;;;;;;5.55;1.40;;;18.60;99.90;;;;;;12365300;28;20042;-80
2022/06/20 18:14:05;;;;;;;2.67;1.15;;;18.40;99.90;;;;;;12367971;28;20054;-81
2022/06/20 18:20:25;;;;;;;2.90;1.00;;;18.50;99.90;;;;;;12366776;28;20182;-80
2022/06/20 18:26:36;;;;;;;4.45;1.00;;;18.00;99.90;;;;;;12370104;28;20464;-79
2022/06/20 18:32:45;;;;;;;2.78;1.15;;;17.60;99.90;;;;;;12364872;28;20096;-82
2022/06/20 18:39:16;;;;;;;3.85;1.30;;;17.60;99.90;;;;;;12371583;28;20137;-80
2022/06/20 18:45:45;;;;;;;6.75;1.25;;;17.30;99.90;;;;;;12358787;28;20092;-80
2022/06/20 18:52:10;;;;;;;3.95;1.27;;;17.10;99.90;;;;;;12387698;28;20043;-81
2022/06/20 18:58:49;;;;;;;6.05;1.30;;;16.90;99.90;;;;;;12372889;28;20054;-80
2022/06/20 19:05:29;;;;;;;6.90;1.25;;;16.70;99.90;;;;;;12369631;28;20054;-81
2022/06/20 19:11:46;;;;;;;5.95;1.50;;;16.60;99.90;;;;;;12363189;28;20560;-82
2022/06/20 19:17:59;;;;;;;3.65;1.50;;;16.70;99.90;;;;;;12366507;28;20154;-81
2022/06/20 19:24:13;;;;;;;3.22;1.48;;;16.70;99.90;;;;;;12361406;28;20043;-82
2022/06/20 19:30:45;;;;;;;5.40;1.40;;;16.40;99.90;;;;;;12366300;28;20047;-81
2022/06/20 19:37:02;;;;;;;3.30;1.40;;;16.50;99.90;;;;;;12343732;28;20058;-81
2022/06/20 19:43:09;;;;;;;3.97;1.67;;;16.50;99.90;;;;;;12358776;28;20077;-82
2022/06/20 19:49:38;;;;;;;3.72;1.60;;;16.40;99.90;;;;;;12360759;28;20043;-81
2022/06/20 19:55:52;;;;;;;2.50;1.58;;;16.10;99.90;;;;;;12355500;28;20043;-81
2022/06/20 20:02:27;;;;;;;7.45;1.83;;;16.00;99.90;;;;;;12362395;28;20101;-81
2022/06/20 20:08:43;;;;;;;5.20;1.80;;;15.90;99.90;;;;;;12355754;28;20452;-81
2022/06/20 20:15:26;;;;;;;4.57;1.42;;;15.80;99.90;;;;;;12365637;28;20133;-80
2022/06/20 20:21:40;;;;;;;6.78;1.70;;;15.70;99.90;;;;;;12355015;28;20062;-82
2022/06/20 20:27:47;;;;;;;4.68;1.90;;;15.50;99.90;;;;;;12338934;28;20493;-81
2022/06/20 20:33:58;;;;;;;6.45;1.88;;;15.70;99.90;;;;;;12363832;28;20046;-80
2022/06/20 20:40:34;;;;;;;7.75;2.22;;;15.50;99.90;;;;;;12369761;28;20133;-81
2022/06/20 20:46:41;;;;;;;4.68;1.60;;;15.60;99.90;;;;;;12363201;28;20068;-81
2022/06/20 20:52:48;;;;;;;3.33;1.80;;;15.50;99.90;;;;;;12381060;28;20049;-82
2022/06/20 20:58:56;;;;;;;4.43;1.75;;;15.60;99.90;;;;;;12368689;28;20054;-81
2022/06/20 21:05:01;;;;;;;4.22;1.67;;;15.50;99.90;;;;;;12349159;28;20748;-81
2022/06/20 21:11:23;;;;;;;5.70;2.05;;;15.50;99.90;;;;;;12380144;28;20042;-81
2022/06/20 21:17:26;;;;;;;7.05;1.88;;;15.40;99.90;;;;;;12372886;28;20055;-80
2022/06/20 21:23:37;;;;;;;7.03;1.88;;;15.30;99.90;;;;;;12370044;28;20047;-80
2022/06/20 21:29:40;;;;;;;6.90;1.80;;;15.10;99.90;;;;;;12366342;28;20443;-80
2022/06/20 21:35:47;;;;;;;6.75;2.08;;;15.10;99.90;;;;;;12353178;28;20395;-81
2022/06/20 21:41:57;;;;;;;7.45;2.10;;;15.00;99.90;;;;;;12379372;28;20521;-81
2022/06/20 21:48:02;;;;;;;5.45;2.10;;;15.20;99.90;;;;;;12382980;28;20043;-81
2022/06/20 21:54:13;;;;;;;6.35;1.92;;;15.30;99.90;;;;;;12358527;28;20508;-81
2022/06/20 22:00:18;;;;;;;6.55;2.40;;;15.30;99.90;;;;;;12359143;28;20078;-81
2022/06/20 22:06:20;;;;;;;5.22;2.15;;;15.20;99.90;;;;;;12392473;28;20483;-81
2022/06/20 22:12:25;;;;;;;8.05;2.40;;;14.90;99.90;;;;;;12372845;28;20121;-81
2022/06/20 22:18:31;;;;;;;4.13;2.10;;;14.60;99.90;;;;;;12359649;28;20148;-81
2022/06/20 22:24:55;;;;;;;6.65;2.55;;;14.40;99.90;;;;;;12358910;28;20054;-81
2022/06/20 22:31:02;;;;;;;8.98;3.05;;;14.50;99.90;;;;;;12367067;28;20074;-81
2022/06/20 22:37:07;;;;;;;9.02;2.65;;;14.40;99.90;;;;;;12369386;28;20115;-80
2022/06/20 22:43:19;;;;;;;5.35;1.88;;;14.30;99.90;;;;;;12352474;28;20137;-81
2022/06/20 22:49:29;;;;;;;7.80;2.17;;;14.10;99.90;;;;;;12349820;28;20093;-80
2022/06/20 22:55:50;;;;;;;6.68;2.20;;;14.10;99.90;;;;;;12372106;28;20108;-80
2022/06/20 23:01:55;;;;;;;6.28;2.17;;;14.00;99.90;;;;;;12361278;28;20514;-80
2022/06/20 23:07:57;;;;;;;8.07;2.25;;;14.00;99.90;;;;;;12350949;28;20058;-80
2022/06/20 23:13:59;;;;;;;8.05;2.13;;;14.00;99.90;;;;;;12382607;28;20046;-80
2022/06/20 23:20:00;;;;;;;8.05;2.30;;;14.00;99.90;;;;;;12365414;28;20107;-81
2022/06/20 23:26:02;;;;;;;7.35;2.15;;;14.00;99.90;;;;;;12355614;28;20058;-81
2022/06/20 23:32:05;;;;;;;5.72;1.88;;;14.10;99.90;;;;;;12355102;28;20049;-81
2022/06/20 23:38:22;;;;;;;5.25;1.88;;;14.20;99.90;;;;;;12369445;28;20122;-81
2022/06/20 23:44:25;;;;;;;5.18;1.67;;;14.10;99.90;;;;;;12378821;28;20128;-81
2022/06/20 23:50:31;;;;;;;4.80;1.90;;;14.10;99.90;;;;;;12374696;28;20241;-81
2022/06/20 23:56:33;;;;;;;8.63;2.55;;;14.10;99.90;;;;;;12361169;28;20057;-81
